sensor_id;sensor_type;location;lat;lon;timestamp;temperature;humidity
23301;DHT22;11819;51.394;12.340;2023-07-31T00:01:51;17.60;90.80
23301;DHT22;11819;51.394;12.340;2023-07-31T00:04:17;17.60;90.80
23301;DHT22;11819;51.394;12.340;2023-07-31T00:06:44;17.60;90.80
23301;DHT22;11819;51.394;12.340;2023-07-31T00:09:10;17.60;90.60
23301;DHT22;11819;51.394;12.340;2023-07-31T00:11:35;17.60;90.60
23301;DHT22;11819;51.394;12.340;2023-07-31T00:14:01;17.60;90.60
23301;DHT22;11819;51.394;12.340;2023-07-31T00:16:26;17.60;90.40
23301;DHT22;11819;51.394;12.340;2023-07-31T00:18:52;17.60;90.50
23301;DHT22;11819;51.394;12.340;2023-07-31T00:21:18;17.60;90.60
23301;DHT22;11819;51.394;12.340;2023-07-31T00:23:44;17.60;90.70
23301;DHT22;11819;51.394;12.340;2023-07-31T00:26:09;17.60;90.90
23301;DHT22;11819;51.394;12.340;2023-07-31T00:28:35;17.60;90.80
23301;DHT22;11819;51.394;12.340;2023-07-31T00:31:00;17.60;91.20
23301;DHT22;11819;51.394;12.340;2023-07-31T00:33:27;17.60;91.30
23301;DHT22;11819;51.394;12.340;2023-07-31T00:35:53;17.60;91.70
23301;DHT22;11819;51.394;12.340;2023-07-31T00:38:18;17.50;91.60
23301;DHT22;11819;51.394;12.340;2023-07-31T00:40:44;17.50;91.50
23301;DHT22;11819;51.394;12.340;2023-07-31T00:43:09;17.60;91.70
23301;DHT22;11819;51.394;12.340;2023-07-31T00:45:35;17.50;91.60
23301;DHT22;11819;51.394;12.340;2023-07-31T00:48:01;17.50;91.70
23301;DHT22;11819;51.394;12.340;2023-07-31T00:50:28;17.50;91.60
23301;DHT22;11819;51.394;12.340;2023-07-31T00:52:54;17.50;91.30
23301;DHT22;11819;51.394;12.340;2023-07-31T00:55:19;17.50;91.40
23301;DHT22;11819;51.394;12.340;2023-07-31T00:57:48;17.50;91.20
23301;DHT22;11819;51.394;12.340;2023-07-31T01:00:13;17.60;90.90
23301;DHT22;11819;51.394;12.340;2023-07-31T01:02:39;17.60;90.70
23301;DHT22;11819;51.394;12.340;2023-07-31T01:05:05;17.60;90.70
23301;DHT22;11819;51.394;12.340;2023-07-31T01:10:36;17.70;90.80
23301;DHT22;11819;51.394;12.340;2023-07-31T01:13:03;17.70;90.50
23301;DHT22;11819;51.394;12.340;2023-07-31T01:15:29;17.70;90.50
23301;DHT22;11819;51.394;12.340;2023-07-31T01:17:55;17.70;90.30
23301;DHT22;11819;51.394;12.340;2023-07-31T01:20:25;17.70;90.10
23301;DHT22;11819;51.394;12.340;2023-07-31T01:23:26;17.70;90.10
23301;DHT22;11819;51.394;12.340;2023-07-31T01:28:50;17.70;90.10
23301;DHT22;11819;51.394;12.340;2023-07-31T01:31:22;17.70;90.00
23301;DHT22;11819;51.394;12.340;2023-07-31T01:33:50;17.70;89.90
23301;DHT22;11819;51.394;12.340;2023-07-31T01:36:16;17.70;89.50
23301;DHT22;11819;51.394;12.340;2023-07-31T01:38:42;17.70;89.60
23301;DHT22;11819;51.394;12.340;2023-07-31T01:41:08;17.70;89.80
23301;DHT22;11819;51.394;12.340;2023-07-31T01:43:33;17.70;89.80
23301;DHT22;11819;51.394;12.340;2023-07-31T01:45:59;17.70;90.00
23301;DHT22;11819;51.394;12.340;2023-07-31T01:48:25;17.70;90.00
23301;DHT22;11819;51.394;12.340;2023-07-31T01:50:50;17.70;90.30
23301;DHT22;11819;51.394;12.340;2023-07-31T01:53:16;17.70;90.70
23301;DHT22;11819;51.394;12.340;2023-07-31T01:55:42;17.60;90.80
23301;DHT22;11819;51.394;12.340;2023-07-31T01:58:07;17.60;91.10
23301;DHT22;11819;51.394;12.340;2023-07-31T02:00:33;17.50;91.30
23301;DHT22;11819;51.394;12.340;2023-07-31T02:02:59;17.50;91.70
23301;DHT22;11819;51.394;12.340;2023-07-31T02:05:25;17.50;91.70
23301;DHT22;11819;51.394;12.340;2023-07-31T02:07:53;17.50;91.50
23301;DHT22;11819;51.394;12.340;2023-07-31T02:10:18;17.40;91.50
23301;DHT22;11819;51.394;12.340;2023-07-31T02:12:44;17.40;91.40
23301;DHT22;11819;51.394;12.340;2023-07-31T02:15:10;17.40;91.40
23301;DHT22;11819;51.394;12.340;2023-07-31T02:17:35;17.40;91.40
23301;DHT22;11819;51.394;12.340;2023-07-31T02:20:01;17.50;91.30
23301;DHT22;11819;51.394;12.340;2023-07-31T02:22:29;17.50;91.30
23301;DHT22;11819;51.394;12.340;2023-07-31T02:24:55;17.50;91.20
23301;DHT22;11819;51.394;12.340;2023-07-31T02:27:21;17.40;91.20
23301;DHT22;11819;51.394;12.340;2023-07-31T02:29:49;17.50;91.20
23301;DHT22;11819;51.394;12.340;2023-07-31T02:32:15;17.40;91.30
23301;DHT22;11819;51.394;12.340;2023-07-31T02:34:41;17.40;91.30
23301;DHT22;11819;51.394;12.340;2023-07-31T02:37:06;17.40;91.30
23301;DHT22;11819;51.394;12.340;2023-07-31T02:39:32;17.40;91.40
23301;DHT22;11819;51.394;12.340;2023-07-31T02:41:58;17.40;91.30
23301;DHT22;11819;51.394;12.340;2023-07-31T02:44:23;17.40;91.40
23301;DHT22;11819;51.394;12.340;2023-07-31T02:46:49;17.40;91.60
23301;DHT22;11819;51.394;12.340;2023-07-31T02:49:15;17.40;92.10
23301;DHT22;11819;51.394;12.340;2023-07-31T02:51:41;17.40;91.70
23301;DHT22;11819;51.394;12.340;2023-07-31T02:54:06;17.40;91.70
23301;DHT22;11819;51.394;12.340;2023-07-31T02:56:32;17.40;91.70
23301;DHT22;11819;51.394;12.340;2023-07-31T02:58:58;17.40;91.80
23301;DHT22;11819;51.394;12.340;2023-07-31T03:01:23;17.40;91.90
23301;DHT22;11819;51.394;12.340;2023-07-31T03:03:49;17.40;91.90
23301;DHT22;11819;51.394;12.340;2023-07-31T03:06:15;17.40;91.90
23301;DHT22;11819;51.394;12.340;2023-07-31T03:08:41;17.30;91.90
23301;DHT22;11819;51.394;12.340;2023-07-31T03:11:07;17.40;91.90
23301;DHT22;11819;51.394;12.340;2023-07-31T03:13:32;17.30;91.90
23301;DHT22;11819;51.394;12.340;2023-07-31T03:15:58;17.40;92.00
23301;DHT22;11819;51.394;12.340;2023-07-31T03:18:24;17.40;92.20
23301;DHT22;11819;51.394;12.340;2023-07-31T03:20:49;17.40;92.50
23301;DHT22;11819;51.394;12.340;2023-07-31T03:23:15;17.40;92.70
23301;DHT22;11819;51.394;12.340;2023-07-31T03:26:01;17.30;92.60
23301;DHT22;11819;51.394;12.340;2023-07-31T03:28:28;17.30;92.40
23301;DHT22;11819;51.394;12.340;2023-07-31T03:30:54;17.30;92.50
23301;DHT22;11819;51.394;12.340;2023-07-31T03:33:21;17.20;92.60
23301;DHT22;11819;51.394;12.340;2023-07-31T03:35:47;17.20;92.60
23301;DHT22;11819;51.394;12.340;2023-07-31T03:38:13;17.20;92.70
23301;DHT22;11819;51.394;12.340;2023-07-31T03:40:39;17.20;92.70
23301;DHT22;11819;51.394;12.340;2023-07-31T03:43:05;17.20;93.00
23301;DHT22;11819;51.394;12.340;2023-07-31T03:45:31;17.20;93.20
23301;DHT22;11819;51.394;12.340;2023-07-31T03:48:00;17.20;93.40
23301;DHT22;11819;51.394;12.340;2023-07-31T03:50:25;17.10;93.80
23301;DHT22;11819;51.394;12.340;2023-07-31T03:52:52;17.10;94.00
23301;DHT22;11819;51.394;12.340;2023-07-31T03:55:17;17.00;94.30
23301;DHT22;11819;51.394;12.340;2023-07-31T03:57:43;17.00;94.60
23301;DHT22;11819;51.394;12.340;2023-07-31T04:00:10;16.90;94.80
23301;DHT22;11819;51.394;12.340;2023-07-31T04:02:38;16.80;95.20
23301;DHT22;11819;51.394;12.340;2023-07-31T04:05:04;16.80;95.30
23301;DHT22;11819;51.394;12.340;2023-07-31T04:07:30;16.80;95.40
23301;DHT22;11819;51.394;12.340;2023-07-31T04:09:56;16.80;95.60
23301;DHT22;11819;51.394;12.340;2023-07-31T04:12:22;16.70;95.70
23301;DHT22;11819;51.394;12.340;2023-07-31T04:14:48;16.80;95.80
23301;DHT22;11819;51.394;12.340;2023-07-31T04:17:14;16.70;95.90
23301;DHT22;11819;51.394;12.340;2023-07-31T04:19:39;16.70;96.20
23301;DHT22;11819;51.394;12.340;2023-07-31T04:22:05;16.70;96.40
23301;DHT22;11819;51.394;12.340;2023-07-31T04:24:30;16.70;96.50
23301;DHT22;11819;51.394;12.340;2023-07-31T04:26:56;16.60;96.70
23301;DHT22;11819;51.394;12.340;2023-07-31T04:29:22;16.60;96.80
23301;DHT22;11819;51.394;12.340;2023-07-31T04:31:48;16.60;96.90
23301;DHT22;11819;51.394;12.340;2023-07-31T04:34:14;16.60;97.10
23301;DHT22;11819;51.394;12.340;2023-07-31T04:36:39;16.60;97.30
23301;DHT22;11819;51.394;12.340;2023-07-31T04:39:05;16.60;97.60
23301;DHT22;11819;51.394;12.340;2023-07-31T04:41:31;16.60;97.80
23301;DHT22;11819;51.394;12.340;2023-07-31T04:43:56;16.60;98.10
23301;DHT22;11819;51.394;12.340;2023-07-31T04:46:22;16.50;98.10
23301;DHT22;11819;51.394;12.340;2023-07-31T04:48:47;16.50;98.30
23301;DHT22;11819;51.394;12.340;2023-07-31T04:51:13;16.50;98.60
23301;DHT22;11819;51.394;12.340;2023-07-31T04:53:39;16.50;99.20
23301;DHT22;11819;51.394;12.340;2023-07-31T04:56:04;16.50;99.60
23301;DHT22;11819;51.394;12.340;2023-07-31T04:58:30;16.50;99.90
23301;DHT22;11819;51.394;12.340;2023-07-31T05:00:56;16.50;99.90
23301;DHT22;11819;51.394;12.340;2023-07-31T05:03:23;16.50;99.90
23301;DHT22;11819;51.394;12.340;2023-07-31T05:05:50;16.50;99.90
23301;DHT22;11819;51.394;12.340;2023-07-31T05:08:16;16.50;99.90
23301;DHT22;11819;51.394;12.340;2023-07-31T05:10:43;16.40;99.90
23301;DHT22;11819;51.394;12.340;2023-07-31T05:13:09;16.40;99.90
23301;DHT22;11819;51.394;12.340;2023-07-31T05:15:34;16.40;99.90
23301;DHT22;11819;51.394;12.340;2023-07-31T05:18:00;16.40;99.90
23301;DHT22;11819;51.394;12.340;2023-07-31T05:20:26;16.40;99.90
23301;DHT22;11819;51.394;12.340;2023-07-31T05:22:53;16.40;99.90
23301;DHT22;11819;51.394;12.340;2023-07-31T05:25:18;16.40;99.90
23301;DHT22;11819;51.394;12.340;2023-07-31T05:27:44;16.40;99.90
23301;DHT22;11819;51.394;12.340;2023-07-31T05:30:10;16.40;99.90
23301;DHT22;11819;51.394;12.340;2023-07-31T05:32:35;16.40;99.90
23301;DHT22;11819;51.394;12.340;2023-07-31T05:35:01;16.40;99.90
23301;DHT22;11819;51.394;12.340;2023-07-31T05:37:26;16.40;99.90
23301;DHT22;11819;51.394;12.340;2023-07-31T05:39:53;16.40;99.90
23301;DHT22;11819;51.394;12.340;2023-07-31T05:42:19;16.40;99.90
23301;DHT22;11819;51.394;12.340;2023-07-31T05:44:45;16.40;99.90
23301;DHT22;11819;51.394;12.340;2023-07-31T05:47:11;16.40;99.90
23301;DHT22;11819;51.394;12.340;2023-07-31T05:49:36;16.40;99.90
23301;DHT22;11819;51.394;12.340;2023-07-31T05:52:02;16.40;99.90
23301;DHT22;11819;51.394;12.340;2023-07-31T05:54:28;16.50;99.90
23301;DHT22;11819;51.394;12.340;2023-07-31T05:56:54;16.50;99.90
23301;DHT22;11819;51.394;12.340;2023-07-31T05:59:19;16.50;99.90
23301;DHT22;11819;51.394;12.340;2023-07-31T06:01:45;16.60;99.90
23301;DHT22;11819;51.394;12.340;2023-07-31T06:04:10;16.60;99.90
23301;DHT22;11819;51.394;12.340;2023-07-31T06:06:36;16.60;99.90
23301;DHT22;11819;51.394;12.340;2023-07-31T06:09:02;16.60;99.90
23301;DHT22;11819;51.394;12.340;2023-07-31T06:11:29;16.60;99.90
23301;DHT22;11819;51.394;12.340;2023-07-31T06:13:55;16.60;99.90
23301;DHT22;11819;51.394;12.340;2023-07-31T06:16:20;16.60;99.90
23301;DHT22;11819;51.394;12.340;2023-07-31T06:18:47;16.60;99.90
23301;DHT22;11819;51.394;12.340;2023-07-31T06:21:13;16.60;99.90
23301;DHT22;11819;51.394;12.340;2023-07-31T06:23:38;16.70;99.90
23301;DHT22;11819;51.394;12.340;2023-07-31T06:26:04;16.70;99.90
23301;DHT22;11819;51.394;12.340;2023-07-31T06:28:31;16.80;99.90
23301;DHT22;11819;51.394;12.340;2023-07-31T06:30:57;16.80;99.90
23301;DHT22;11819;51.394;12.340;2023-07-31T06:33:23;16.80;99.90
23301;DHT22;11819;51.394;12.340;2023-07-31T06:35:49;16.80;99.90
23301;DHT22;11819;51.394;12.340;2023-07-31T06:38:15;16.80;99.90
23301;DHT22;11819;51.394;12.340;2023-07-31T06:40:40;16.90;99.90
23301;DHT22;11819;51.394;12.340;2023-07-31T06:43:06;16.90;99.90
23301;DHT22;11819;51.394;12.340;2023-07-31T06:45:36;16.90;99.90
23301;DHT22;11819;51.394;12.340;2023-07-31T06:48:03;16.90;99.90
23301;DHT22;11819;51.394;12.340;2023-07-31T06:50:30;17.00;99.90
23301;DHT22;11819;51.394;12.340;2023-07-31T06:52:56;17.00;99.90
23301;DHT22;11819;51.394;12.340;2023-07-31T06:55:22;17.00;99.90
23301;DHT22;11819;51.394;12.340;2023-07-31T06:57:49;17.10;99.90
23301;DHT22;11819;51.394;12.340;2023-07-31T07:00:16;17.10;99.90
23301;DHT22;11819;51.394;12.340;2023-07-31T07:02:42;17.10;99.90
23301;DHT22;11819;51.394;12.340;2023-07-31T07:05:08;17.10;99.90
23301;DHT22;11819;51.394;12.340;2023-07-31T07:07:34;17.20;99.90
23301;DHT22;11819;51.394;12.340;2023-07-31T07:10:00;17.20;99.90
23301;DHT22;11819;51.394;12.340;2023-07-31T07:12:27;17.20;99.90
23301;DHT22;11819;51.394;12.340;2023-07-31T07:14:53;17.20;99.90
23301;DHT22;11819;51.394;12.340;2023-07-31T07:17:19;17.30;99.90
23301;DHT22;11819;51.394;12.340;2023-07-31T07:19:45;17.30;99.90
23301;DHT22;11819;51.394;12.340;2023-07-31T07:22:11;17.30;99.90
23301;DHT22;11819;51.394;12.340;2023-07-31T07:24:37;17.40;99.90
23301;DHT22;11819;51.394;12.340;2023-07-31T07:27:03;17.40;99.90
23301;DHT22;11819;51.394;12.340;2023-07-31T07:29:29;17.40;99.90
23301;DHT22;11819;51.394;12.340;2023-07-31T07:31:55;17.50;99.90
23301;DHT22;11819;51.394;12.340;2023-07-31T07:34:30;17.50;99.90
23301;DHT22;11819;51.394;12.340;2023-07-31T07:36:55;17.50;99.90
23301;DHT22;11819;51.394;12.340;2023-07-31T07:39:21;17.50;99.80
23301;DHT22;11819;51.394;12.340;2023-07-31T07:41:47;17.60;99.60
23301;DHT22;11819;51.394;12.340;2023-07-31T07:44:13;17.60;99.60
23301;DHT22;11819;51.394;12.340;2023-07-31T07:46:40;17.60;99.40
23301;DHT22;11819;51.394;12.340;2023-07-31T07:49:06;17.60;99.10
23301;DHT22;11819;51.394;12.340;2023-07-31T07:51:31;17.60;99.20
23301;DHT22;11819;51.394;12.340;2023-07-31T07:53:58;17.70;99.00
23301;DHT22;11819;51.394;12.340;2023-07-31T07:56:25;17.70;98.90
23301;DHT22;11819;51.394;12.340;2023-07-31T07:58:51;17.70;98.70
23301;DHT22;11819;51.394;12.340;2023-07-31T08:01:16;17.70;98.80
23301;DHT22;11819;51.394;12.340;2023-07-31T08:03:42;17.80;98.50
23301;DHT22;11819;51.394;12.340;2023-07-31T08:06:08;17.80;98.30
23301;DHT22;11819;51.394;12.340;2023-07-31T08:08:35;17.80;98.50
23301;DHT22;11819;51.394;12.340;2023-07-31T08:11:01;17.80;98.20
23301;DHT22;11819;51.394;12.340;2023-07-31T08:13:27;17.80;98.50
23301;DHT22;11819;51.394;12.340;2023-07-31T08:15:52;17.90;98.40
23301;DHT22;11819;51.394;12.340;2023-07-31T08:18:18;17.90;98.30
23301;DHT22;11819;51.394;12.340;2023-07-31T08:20:44;17.90;98.30
23301;DHT22;11819;51.394;12.340;2023-07-31T08:23:10;18.00;98.30
23301;DHT22;11819;51.394;12.340;2023-07-31T08:25:36;18.10;98.20
23301;DHT22;11819;51.394;12.340;2023-07-31T08:28:03;18.10;98.00
23301;DHT22;11819;51.394;12.340;2023-07-31T08:30:29;18.10;97.90
23301;DHT22;11819;51.394;12.340;2023-07-31T08:32:54;18.10;97.60
23301;DHT22;11819;51.394;12.340;2023-07-31T08:35:20;18.20;97.10
23301;DHT22;11819;51.394;12.340;2023-07-31T08:37:46;18.20;97.20
23301;DHT22;11819;51.394;12.340;2023-07-31T08:40:11;18.20;97.10
23301;DHT22;11819;51.394;12.340;2023-07-31T08:42:47;18.20;97.00
23301;DHT22;11819;51.394;12.340;2023-07-31T08:45:18;18.30;96.70
23301;DHT22;11819;51.394;12.340;2023-07-31T08:47:49;18.30;96.40
23301;DHT22;11819;51.394;12.340;2023-07-31T08:50:19;18.40;96.30
23301;DHT22;11819;51.394;12.340;2023-07-31T08:52:46;18.40;96.20
23301;DHT22;11819;51.394;12.340;2023-07-31T08:55:12;18.50;96.00
23301;DHT22;11819;51.394;12.340;2023-07-31T08:57:38;18.50;95.80
23301;DHT22;11819;51.394;12.340;2023-07-31T09:00:06;18.60;95.60
23301;DHT22;11819;51.394;12.340;2023-07-31T09:02:46;18.60;95.30
23301;DHT22;11819;51.394;12.340;2023-07-31T09:05:14;18.70;95.10
23301;DHT22;11819;51.394;12.340;2023-07-31T09:07:41;18.70;95.10
23301;DHT22;11819;51.394;12.340;2023-07-31T09:10:09;18.80;94.80
23301;DHT22;11819;51.394;12.340;2023-07-31T09:12:35;18.80;94.80
23301;DHT22;11819;51.394;12.340;2023-07-31T09:15:01;18.90;94.60
23301;DHT22;11819;51.394;12.340;2023-07-31T09:17:37;18.90;94.00
23301;DHT22;11819;51.394;12.340;2023-07-31T09:20:21;18.90;93.90
23301;DHT22;11819;51.394;12.340;2023-07-31T09:22:48;18.80;93.90
23301;DHT22;11819;51.394;12.340;2023-07-31T09:25:26;18.80;93.90
23301;DHT22;11819;51.394;12.340;2023-07-31T09:27:59;18.80;93.70
23301;DHT22;11819;51.394;12.340;2023-07-31T09:30:25;18.80;93.70
23301;DHT22;11819;51.394;12.340;2023-07-31T09:32:52;18.80;94.00
23301;DHT22;11819;51.394;12.340;2023-07-31T09:35:32;18.80;93.90
23301;DHT22;11819;51.394;12.340;2023-07-31T09:38:09;18.80;93.90
23301;DHT22;11819;51.394;12.340;2023-07-31T09:40:37;18.80;93.70
23301;DHT22;11819;51.394;12.340;2023-07-31T09:43:16;18.90;93.80
23301;DHT22;11819;51.394;12.340;2023-07-31T09:45:44;19.00;93.60
23301;DHT22;11819;51.394;12.340;2023-07-31T09:48:18;19.00;93.70
23301;DHT22;11819;51.394;12.340;2023-07-31T09:50:45;19.00;93.00
23301;DHT22;11819;51.394;12.340;2023-07-31T09:53:11;19.00;93.10
23301;DHT22;11819;51.394;12.340;2023-07-31T09:55:38;19.00;92.90
23301;DHT22;11819;51.394;12.340;2023-07-31T09:58:06;19.10;92.80
23301;DHT22;11819;51.394;12.340;2023-07-31T10:00:33;19.10;93.20
23301;DHT22;11819;51.394;12.340;2023-07-31T10:03:01;19.10;93.40
23301;DHT22;11819;51.394;12.340;2023-07-31T10:05:50;19.10;93.80
23301;DHT22;11819;51.394;12.340;2023-07-31T10:08:20;19.10;93.40
23301;DHT22;11819;51.394;12.340;2023-07-31T10:10:47;19.20;93.40
23301;DHT22;11819;51.394;12.340;2023-07-31T10:13:14;19.20;93.30
23301;DHT22;11819;51.394;12.340;2023-07-31T10:15:40;19.30;93.00
23301;DHT22;11819;51.394;12.340;2023-07-31T10:18:09;19.40;93.10
23301;DHT22;11819;51.394;12.340;2023-07-31T10:20:36;19.50;92.70
23301;DHT22;11819;51.394;12.340;2023-07-31T10:23:03;19.60;92.60
23301;DHT22;11819;51.394;12.340;2023-07-31T10:25:29;19.70;92.30
23301;DHT22;11819;51.394;12.340;2023-07-31T10:27:57;19.80;91.70
23301;DHT22;11819;51.394;12.340;2023-07-31T10:30:27;19.80;91.60
23301;DHT22;11819;51.394;12.340;2023-07-31T10:32:55;19.80;91.50
23301;DHT22;11819;51.394;12.340;2023-07-31T10:35:21;19.90;91.30
23301;DHT22;11819;51.394;12.340;2023-07-31T10:37:51;19.80;91.30
23301;DHT22;11819;51.394;12.340;2023-07-31T10:40:19;19.80;91.20
23301;DHT22;11819;51.394;12.340;2023-07-31T10:42:54;19.80;91.60
23301;DHT22;11819;51.394;12.340;2023-07-31T10:45:42;19.70;91.50
23301;DHT22;11819;51.394;12.340;2023-07-31T10:48:15;19.70;91.70
23301;DHT22;11819;51.394;12.340;2023-07-31T10:50:52;19.70;91.90
23301;DHT22;11819;51.394;12.340;2023-07-31T10:53:24;19.70;91.90
23301;DHT22;11819;51.394;12.340;2023-07-31T10:55:50;19.80;92.10
23301;DHT22;11819;51.394;12.340;2023-07-31T10:58:20;19.90;91.80
23301;DHT22;11819;51.394;12.340;2023-07-31T11:00:46;20.00;91.60
23301;DHT22;11819;51.394;12.340;2023-07-31T11:03:13;20.20;91.40
23301;DHT22;11819;51.394;12.340;2023-07-31T11:05:50;20.20;90.80
23301;DHT22;11819;51.394;12.340;2023-07-31T11:08:26;20.30;90.90
23301;DHT22;11819;51.394;12.340;2023-07-31T11:13:40;20.50;90.10
23301;DHT22;11819;51.394;12.340;2023-07-31T11:16:06;20.60;90.10
23301;DHT22;11819;51.394;12.340;2023-07-31T11:18:32;20.60;89.00
23301;DHT22;11819;51.394;12.340;2023-07-31T11:20:58;20.60;88.70
23301;DHT22;11819;51.394;12.340;2023-07-31T11:23:24;20.60;88.90
23301;DHT22;11819;51.394;12.340;2023-07-31T11:25:50;20.70;87.80
23301;DHT22;11819;51.394;12.340;2023-07-31T11:28:17;20.70;88.30
23301;DHT22;11819;51.394;12.340;2023-07-31T11:30:44;20.80;88.40
23301;DHT22;11819;51.394;12.340;2023-07-31T11:33:12;20.80;87.20
23301;DHT22;11819;51.394;12.340;2023-07-31T11:35:46;20.80;86.90
23301;DHT22;11819;51.394;12.340;2023-07-31T11:40:52;20.80;87.10
23301;DHT22;11819;51.394;12.340;2023-07-31T11:43:19;20.90;88.50
23301;DHT22;11819;51.394;12.340;2023-07-31T11:45:53;20.90;86.80
23301;DHT22;11819;51.394;12.340;2023-07-31T11:50:50;20.90;85.90
23301;DHT22;11819;51.394;12.340;2023-07-31T11:53:21;20.90;86.90
23301;DHT22;11819;51.394;12.340;2023-07-31T11:55:48;20.90;86.20
23301;DHT22;11819;51.394;12.340;2023-07-31T11:58:14;20.90;86.30
23301;DHT22;11819;51.394;12.340;2023-07-31T12:00:41;20.90;86.20
23301;DHT22;11819;51.394;12.340;2023-07-31T12:03:07;20.90;86.30
23301;DHT22;11819;51.394;12.340;2023-07-31T12:05:33;20.90;85.40
23301;DHT22;11819;51.394;12.340;2023-07-31T12:07:59;21.00;85.80
23301;DHT22;11819;51.394;12.340;2023-07-31T12:10:29;21.00;85.00
23301;DHT22;11819;51.394;12.340;2023-07-31T12:13:07;21.00;85.70
23301;DHT22;11819;51.394;12.340;2023-07-31T12:15:45;21.10;83.90
23301;DHT22;11819;51.394;12.340;2023-07-31T12:18:12;21.10;84.10
23301;DHT22;11819;51.394;12.340;2023-07-31T12:20:47;21.10;84.40
23301;DHT22;11819;51.394;12.340;2023-07-31T12:23:17;21.20;83.00
23301;DHT22;11819;51.394;12.340;2023-07-31T12:25:43;21.30;82.70
23301;DHT22;11819;51.394;12.340;2023-07-31T12:28:10;21.30;82.00
23301;DHT22;11819;51.394;12.340;2023-07-31T12:30:40;21.30;82.00
23301;DHT22;11819;51.394;12.340;2023-07-31T12:33:10;21.30;82.50
23301;DHT22;11819;51.394;12.340;2023-07-31T12:35:38;21.40;81.40
23301;DHT22;11819;51.394;12.340;2023-07-31T12:38:05;21.50;81.40
23301;DHT22;11819;51.394;12.340;2023-07-31T12:40:32;21.70;81.30
23301;DHT22;11819;51.394;12.340;2023-07-31T12:42:58;22.00;80.40
23301;DHT22;11819;51.394;12.340;2023-07-31T12:45:26;22.20;79.90
23301;DHT22;11819;51.394;12.340;2023-07-31T12:47:52;22.50;78.80
23301;DHT22;11819;51.394;12.340;2023-07-31T12:50:18;22.50;77.80
23301;DHT22;11819;51.394;12.340;2023-07-31T12:52:44;22.40;78.00
23301;DHT22;11819;51.394;12.340;2023-07-31T12:55:10;22.30;78.60
23301;DHT22;11819;51.394;12.340;2023-07-31T12:57:36;22.20;78.80
23301;DHT22;11819;51.394;12.340;2023-07-31T13:00:03;22.10;79.10
23301;DHT22;11819;51.394;12.340;2023-07-31T13:02:29;22.10;78.50
23301;DHT22;11819;51.394;12.340;2023-07-31T13:04:55;22.10;78.10
23301;DHT22;11819;51.394;12.340;2023-07-31T13:07:22;22.20;78.50
23301;DHT22;11819;51.394;12.340;2023-07-31T13:09:48;22.20;78.90
23301;DHT22;11819;51.394;12.340;2023-07-31T13:12:14;22.20;78.50
23301;DHT22;11819;51.394;12.340;2023-07-31T13:14:39;22.20;78.10
23301;DHT22;11819;51.394;12.340;2023-07-31T13:17:05;22.30;79.10
23301;DHT22;11819;51.394;12.340;2023-07-31T13:19:31;22.60;78.30
23301;DHT22;11819;51.394;12.340;2023-07-31T13:21:57;22.80;76.00
23301;DHT22;11819;51.394;12.340;2023-07-31T13:24:22;22.80;73.70
23301;DHT22;11819;51.394;12.340;2023-07-31T13:26:48;23.00;72.60
23301;DHT22;11819;51.394;12.340;2023-07-31T13:29:14;23.10;70.90
23301;DHT22;11819;51.394;12.340;2023-07-31T13:31:39;23.20;70.60
23301;DHT22;11819;51.394;12.340;2023-07-31T13:34:05;23.40;71.20
23301;DHT22;11819;51.394;12.340;2023-07-31T13:36:31;23.50;70.70
23301;DHT22;11819;51.394;12.340;2023-07-31T13:38:56;23.40;70.90
23301;DHT22;11819;51.394;12.340;2023-07-31T13:41:22;23.30;69.80
23301;DHT22;11819;51.394;12.340;2023-07-31T13:43:48;23.10;70.20
23301;DHT22;11819;51.394;12.340;2023-07-31T13:46:13;22.80;71.30
23301;DHT22;11819;51.394;12.340;2023-07-31T13:48:39;22.70;72.70
23301;DHT22;11819;51.394;12.340;2023-07-31T13:51:04;22.50;73.60
23301;DHT22;11819;51.394;12.340;2023-07-31T13:53:30;22.40;73.70
23301;DHT22;11819;51.394;12.340;2023-07-31T13:55:56;22.40;74.80
23301;DHT22;11819;51.394;12.340;2023-07-31T13:58:23;22.30;75.00
23301;DHT22;11819;51.394;12.340;2023-07-31T14:00:49;22.30;74.60
23301;DHT22;11819;51.394;12.340;2023-07-31T14:03:15;22.20;74.80
23301;DHT22;11819;51.394;12.340;2023-07-31T14:05:40;22.10;75.40
23301;DHT22;11819;51.394;12.340;2023-07-31T14:08:06;22.10;75.90
23301;DHT22;11819;51.394;12.340;2023-07-31T14:10:32;22.10;76.60
23301;DHT22;11819;51.394;12.340;2023-07-31T14:12:57;22.10;77.00
23301;DHT22;11819;51.394;12.340;2023-07-31T14:15:23;22.00;77.30
23301;DHT22;11819;51.394;12.340;2023-07-31T14:17:50;22.00;77.60
23301;DHT22;11819;51.394;12.340;2023-07-31T14:20:15;22.00;77.80
23301;DHT22;11819;51.394;12.340;2023-07-31T14:22:41;22.10;77.40
23301;DHT22;11819;51.394;12.340;2023-07-31T14:25:07;22.00;77.10
23301;DHT22;11819;51.394;12.340;2023-07-31T14:27:36;22.00;77.20
23301;DHT22;11819;51.394;12.340;2023-07-31T14:30:03;22.00;77.50
23301;DHT22;11819;51.394;12.340;2023-07-31T14:32:29;22.00;77.10
23301;DHT22;11819;51.394;12.340;2023-07-31T14:34:55;22.00;76.50
23301;DHT22;11819;51.394;12.340;2023-07-31T14:37:20;22.00;76.50
23301;DHT22;11819;51.394;12.340;2023-07-31T14:39:46;21.90;76.50
23301;DHT22;11819;51.394;12.340;2023-07-31T14:42:12;21.90;77.10
23301;DHT22;11819;51.394;12.340;2023-07-31T14:44:38;21.80;76.70
23301;DHT22;11819;51.394;12.340;2023-07-31T14:47:03;21.80;77.00
23301;DHT22;11819;51.394;12.340;2023-07-31T14:49:29;21.80;77.20
23301;DHT22;11819;51.394;12.340;2023-07-31T14:51:55;21.80;77.80
23301;DHT22;11819;51.394;12.340;2023-07-31T14:54:21;21.80;77.50
23301;DHT22;11819;51.394;12.340;2023-07-31T14:56:46;21.80;77.80
23301;DHT22;11819;51.394;12.340;2023-07-31T14:59:12;21.90;76.60
23301;DHT22;11819;51.394;12.340;2023-07-31T15:01:38;21.80;76.40
23301;DHT22;11819;51.394;12.340;2023-07-31T15:04:04;21.80;76.90
23301;DHT22;11819;51.394;12.340;2023-07-31T15:06:30;21.70;77.00
23301;DHT22;11819;51.394;12.340;2023-07-31T15:08:57;21.70;77.10
23301;DHT22;11819;51.394;12.340;2023-07-31T15:11:23;21.70;77.20
23301;DHT22;11819;51.394;12.340;2023-07-31T15:13:49;21.60;77.30
23301;DHT22;11819;51.394;12.340;2023-07-31T15:16:14;21.70;77.20
23301;DHT22;11819;51.394;12.340;2023-07-31T15:18:40;21.60;77.00
23301;DHT22;11819;51.394;12.340;2023-07-31T15:21:05;21.60;77.40
23301;DHT22;11819;51.394;12.340;2023-07-31T15:23:32;21.70;77.40
23301;DHT22;11819;51.394;12.340;2023-07-31T15:25:57;21.70;77.60
23301;DHT22;11819;51.394;12.340;2023-07-31T15:28:23;21.70;77.50